sensor_id;sensor_type;location;lat;lon;timestamp;pressure;altitude;pressure_sealevel;temperature;humidity
16355;BME280;8287;51.644;8.494;2023-02-01T00:02:14;100599.22;;;7.21;82.30
16355;BME280;8287;51.644;8.494;2023-02-01T00:04:40;100603.16;;;7.24;82.29
16355;BME280;8287;51.644;8.494;2023-02-01T00:07:08;100605.56;;;7.20;82.32
16355;BME280;8287;51.644;8.494;2023-02-01T00:09:36;100598.16;;;7.22;82.13
16355;BME280;8287;51.644;8.494;2023-02-01T00:12:03;100611.34;;;7.22;82.11
16355;BME280;8287;51.644;8.494;2023-02-01T00:14:30;100607.38;;;7.25;82.21
16355;BME280;8287;51.644;8.494;2023-02-01T00:16:57;100605.75;;;7.29;82.09
16355;BME280;8287;51.644;8.494;2023-02-01T00:19:24;100599.19;;;7.26;82.33
16355;BME280;8287;51.644;8.494;2023-02-01T00:21:50;100600.78;;;7.22;82.14
16355;BME280;8287;51.644;8.494;2023-02-01T00:24:17;100586.06;;;7.21;82.27
16355;BME280;8287;51.644;8.494;2023-02-01T00:26:45;100581.84;;;7.20;82.11
16355;BME280;8287;51.644;8.494;2023-02-01T00:29:13;100583.41;;;7.21;82.58
16355;BME280;8287;51.644;8.494;2023-02-01T00:31:40;100577.06;;;7.27;82.24
16355;BME280;8287;51.644;8.494;2023-02-01T00:34:09;100574.19;;;7.24;82.19
16355;BME280;8287;51.644;8.494;2023-02-01T00:36:36;100577.59;;;7.24;82.68
16355;BME280;8287;51.644;8.494;2023-02-01T00:39:03;100583.41;;;7.21;82.47
16355;BME280;8287;51.644;8.494;2023-02-01T00:41:30;100576.00;;;7.23;82.48
16355;BME280;8287;51.644;8.494;2023-02-01T00:43:57;100581.00;;;7.30;82.33
16355;BME280;8287;51.644;8.494;2023-02-01T00:46:24;100574.13;;;7.29;82.53
16355;BME280;8287;51.644;8.494;2023-02-01T00:48:51;100573.34;;;7.28;82.53
16355;BME280;8287;51.644;8.494;2023-02-01T00:51:19;100573.59;;;7.32;82.88
16355;BME280;8287;51.644;8.494;2023-02-01T00:53:46;100559.59;;;7.31;82.29
16355;BME280;8287;51.644;8.494;2023-02-01T00:56:14;100562.00;;;7.28;82.82
16355;BME280;8287;51.644;8.494;2023-02-01T00:58:40;100551.75;;;7.26;82.64
16355;BME280;8287;51.644;8.494;2023-02-01T01:01:10;100548.31;;;7.31;82.81
16355;BME280;8287;51.644;8.494;2023-02-01T01:03:39;100554.34;;;7.31;82.70
16355;BME280;8287;51.644;8.494;2023-02-01T01:06:08;100563.03;;;7.32;82.94
16355;BME280;8287;51.644;8.494;2023-02-01T01:08:35;100550.97;;;7.26;83.25
16355;BME280;8287;51.644;8.494;2023-02-01T01:11:04;100556.22;;;7.26;83.07
16355;BME280;8287;51.644;8.494;2023-02-01T01:13:31;100553.03;;;7.29;83.06
16355;BME280;8287;51.644;8.494;2023-02-01T01:16:00;100556.97;;;7.31;83.00
16355;BME280;8287;51.644;8.494;2023-02-01T01:18:29;100554.31;;;7.36;83.03
16355;BME280;8287;51.644;8.494;2023-02-01T01:20:56;100550.38;;;7.34;82.90
16355;BME280;8287;51.644;8.494;2023-02-01T01:23:23;100542.19;;;7.35;83.12
16355;BME280;8287;51.644;8.494;2023-02-01T01:25:50;100547.00;;;7.28;83.93
16355;BME280;8287;51.644;8.494;2023-02-01T01:28:16;100560.16;;;7.33;83.84
16355;BME280;8287;51.644;8.494;2023-02-01T01:30:43;100557.53;;;7.28;83.88
16355;BME280;8287;51.644;8.494;2023-02-01T01:33:10;100555.69;;;7.29;84.28
16355;BME280;8287;51.644;8.494;2023-02-01T01:35:38;100553.34;;;7.27;84.69
16355;BME280;8287;51.644;8.494;2023-02-01T01:38:04;100547.22;;;7.32;84.36
16355;BME280;8287;51.644;8.494;2023-02-01T01:40:31;100553.81;;;7.34;84.27
16355;BME280;8287;51.644;8.494;2023-02-01T01:42:58;100551.41;;;7.38;84.77
16355;BME280;8287;51.644;8.494;2023-02-01T01:45:27;100542.19;;;7.35;84.45
16355;BME280;8287;51.644;8.494;2023-02-01T01:47:56;100536.09;;;7.40;84.59
16355;BME280;8287;51.644;8.494;2023-02-01T01:50:26;100548.97;;;7.41;84.17
16355;BME280;8287;51.644;8.494;2023-02-01T01:52:56;100539.50;;;7.40;83.54
16355;BME280;8287;51.644;8.494;2023-02-01T01:55:26;100543.09;;;7.49;83.36
16355;BME280;8287;51.644;8.494;2023-02-01T01:57:57;100537.41;;;7.42;82.91
16355;BME280;8287;51.644;8.494;2023-02-01T02:00:24;100541.53;;;7.48;82.73
16355;BME280;8287;51.644;8.494;2023-02-01T02:02:55;100537.91;;;7.44;82.64
16355;BME280;8287;51.644;8.494;2023-02-01T02:05:24;100541.25;;;7.50;82.25
16355;BME280;8287;51.644;8.494;2023-02-01T02:07:52;100523.91;;;7.44;82.43
16355;BME280;8287;51.644;8.494;2023-02-01T02:10:21;100522.59;;;7.46;82.01
16355;BME280;8287;51.644;8.494;2023-02-01T02:13:07;100511.22;;;7.46;81.75
16355;BME280;8287;51.644;8.494;2023-02-01T02:15:36;100504.41;;;7.45;81.47
16355;BME280;8287;51.644;8.494;2023-02-01T02:18:09;100508.28;;;7.52;81.15
16355;BME280;8287;51.644;8.494;2023-02-01T02:24:17;100505.34;;;7.54;79.84
16355;BME280;8287;51.644;8.494;2023-02-01T02:27:10;100511.47;;;7.49;79.09
16355;BME280;8287;51.644;8.494;2023-02-01T02:30:27;100503.06;;;7.47;78.64
16355;BME280;8287;51.644;8.494;2023-02-01T02:36:17;100488.81;;;7.48;78.41
16355;BME280;8287;51.644;8.494;2023-02-01T02:38:52;100496.69;;;7.53;77.24
16355;BME280;8287;51.644;8.494;2023-02-01T02:41:27;100481.84;;;7.57;76.89
16355;BME280;8287;51.644;8.494;2023-02-01T02:44:22;100485.53;;;7.61;76.89
16355;BME280;8287;51.644;8.494;2023-02-01T02:47:13;100487.59;;;7.64;76.63
16355;BME280;8287;51.644;8.494;2023-02-01T02:49:58;100483.94;;;7.60;75.72
16355;BME280;8287;51.644;8.494;2023-02-01T02:52:49;100473.84;;;7.67;76.51
16355;BME280;8287;51.644;8.494;2023-02-01T02:55:40;100459.38;;;7.65;75.25
16355;BME280;8287;51.644;8.494;2023-02-01T02:58:08;100473.41;;;7.60;75.76
16355;BME280;8287;51.644;8.494;2023-02-01T03:00:54;100459.06;;;7.66;75.49
16355;BME280;8287;51.644;8.494;2023-02-01T03:03:40;100453.81;;;7.66;75.96
16355;BME280;8287;51.644;8.494;2023-02-01T03:06:26;100454.59;;;7.67;75.55
16355;BME280;8287;51.644;8.494;2023-02-01T03:08:54;100455.41;;;7.67;75.95
16355;BME280;8287;51.644;8.494;2023-02-01T03:11:23;100440.91;;;7.65;76.07
16355;BME280;8287;51.644;8.494;2023-02-01T03:14:11;100447.75;;;7.66;75.76
16355;BME280;8287;51.644;8.494;2023-02-01T03:16:43;100435.41;;;7.61;76.07
16355;BME280;8287;51.644;8.494;2023-02-01T03:19:14;100430.41;;;7.60;76.29
16355;BME280;8287;51.644;8.494;2023-02-01T03:21:48;100430.59;;;7.68;76.58
16355;BME280;8287;51.644;8.494;2023-02-01T03:24:18;100415.00;;;7.72;75.97
16355;BME280;8287;51.644;8.494;2023-02-01T03:26:50;100411.63;;;7.66;76.63
16355;BME280;8287;51.644;8.494;2023-02-01T03:29:23;100419.59;;;7.61;76.77
16355;BME280;8287;51.644;8.494;2023-02-01T03:31:51;100413.84;;;7.59;76.58
16355;BME280;8287;51.644;8.494;2023-02-01T03:34:18;100426.78;;;7.56;76.85
16355;BME280;8287;51.644;8.494;2023-02-01T03:36:49;100423.22;;;7.65;76.81
16355;BME280;8287;51.644;8.494;2023-02-01T03:39:21;100426.66;;;7.66;77.26
16355;BME280;8287;51.644;8.494;2023-02-01T03:41:53;100415.53;;;7.69;76.31
16355;BME280;8287;51.644;8.494;2023-02-01T03:44:24;100413.75;;;7.64;76.90
16355;BME280;8287;51.644;8.494;2023-02-01T03:46:56;100410.03;;;7.65;76.76
16355;BME280;8287;51.644;8.494;2023-02-01T03:49:27;100404.84;;;7.60;77.11
16355;BME280;8287;51.644;8.494;2023-02-01T03:51:57;100404.84;;;7.60;77.33
16355;BME280;8287;51.644;8.494;2023-02-01T03:54:25;100409.50;;;7.68;77.28
16355;BME280;8287;51.644;8.494;2023-02-01T03:56:55;100406.91;;;7.63;76.75
16355;BME280;8287;51.644;8.494;2023-02-01T03:59:23;100406.91;;;7.63;76.86
16355;BME280;8287;51.644;8.494;2023-02-01T04:01:50;100400.66;;;7.59;77.27
16355;BME280;8287;51.644;8.494;2023-02-01T04:04:18;100404.31;;;7.58;76.79
16355;BME280;8287;51.644;8.494;2023-02-01T04:06:46;100403.78;;;7.61;76.85
16355;BME280;8287;51.644;8.494;2023-02-01T04:09:14;100388.00;;;7.56;77.10
16355;BME280;8287;51.644;8.494;2023-02-01T04:11:41;100406.53;;;7.51;77.27
16355;BME280;8287;51.644;8.494;2023-02-01T04:14:08;100395.47;;;7.49;76.85
16355;BME280;8287;51.644;8.494;2023-02-01T04:16:34;100402.53;;;7.54;76.97
16355;BME280;8287;51.644;8.494;2023-02-01T04:19:01;100399.13;;;7.53;77.13
16355;BME280;8287;51.644;8.494;2023-02-01T04:21:28;100395.91;;;7.56;76.70
16355;BME280;8287;51.644;8.494;2023-02-01T04:23:55;100404.31;;;7.58;76.76
16355;BME280;8287;51.644;8.494;2023-02-01T04:26:23;100395.38;;;7.59;76.50
16355;BME280;8287;51.644;8.494;2023-02-01T04:28:50;100399.50;;;7.65;76.58
16355;BME280;8287;51.644;8.494;2023-02-01T04:31:18;100382.69;;;7.61;76.30
16355;BME280;8287;51.644;8.494;2023-02-01T04:33:50;100378.97;;;7.62;76.52
16355;BME280;8287;51.644;8.494;2023-02-01T04:36:17;100375.06;;;7.60;76.25
16355;BME280;8287;51.644;8.494;2023-02-01T04:38:44;100372.41;;;7.60;76.12
16355;BME280;8287;51.644;8.494;2023-02-01T04:41:11;100372.13;;;7.61;76.20
16355;BME280;8287;51.644;8.494;2023-02-01T04:43:39;100367.38;;;7.63;76.73
16355;BME280;8287;51.644;8.494;2023-02-01T04:46:06;100356.06;;;7.63;76.49
16355;BME280;8287;51.644;8.494;2023-02-01T04:48:32;100354.22;;;7.58;76.06
16355;BME280;8287;51.644;8.494;2023-02-01T04:50:59;100360.25;;;7.64;76.16
16355;BME280;8287;51.644;8.494;2023-02-01T04:53:25;100362.88;;;7.64;76.22
16355;BME280;8287;51.644;8.494;2023-02-01T04:55:52;100362.94;;;7.59;76.64
16355;BME280;8287;51.644;8.494;2023-02-01T04:58:19;100367.22;;;7.55;76.74
16355;BME280;8287;51.644;8.494;2023-02-01T05:00:47;100356.50;;;7.46;77.52
16355;BME280;8287;51.644;8.494;2023-02-01T05:03:14;100354.66;;;7.47;78.06
16355;BME280;8287;51.644;8.494;2023-02-01T05:05:41;100353.03;;;7.51;77.50
16355;BME280;8287;51.644;8.494;2023-02-01T05:08:08;100348.03;;;7.49;77.47
16355;BME280;8287;51.644;8.494;2023-02-01T05:10:34;100353.88;;;7.46;77.48
16355;BME280;8287;51.644;8.494;2023-02-01T05:13:01;100342.88;;;7.39;77.40
16355;BME280;8287;51.644;8.494;2023-02-01T05:15:46;100348.88;;;7.45;77.64
16355;BME280;8287;51.644;8.494;2023-02-01T05:18:13;100344.97;;;7.42;78.01
16355;BME280;8287;51.644;8.494;2023-02-01T05:20:39;100356.56;;;7.41;78.19
16355;BME280;8287;51.644;8.494;2023-02-01T05:23:06;100352.31;;;7.45;78.15
16355;BME280;8287;51.644;8.494;2023-02-01T05:25:32;100344.44;;;7.40;78.77
16355;BME280;8287;51.644;8.494;2023-02-01T05:27:59;100355.84;;;7.36;79.25
16355;BME280;8287;51.644;8.494;2023-02-01T05:30:26;100364.59;;;7.31;80.10
16355;BME280;8287;51.644;8.494;2023-02-01T05:32:54;100368.91;;;7.22;80.57
16355;BME280;8287;51.644;8.494;2023-02-01T05:35:21;100360.97;;;7.27;80.32
16355;BME280;8287;51.644;8.494;2023-02-01T05:37:47;100356.84;;;7.16;80.78
16355;BME280;8287;51.644;8.494;2023-02-01T05:40:14;100343.34;;;7.23;80.94
16355;BME280;8287;51.644;8.494;2023-02-01T05:42:41;100345.28;;;7.17;80.77
16355;BME280;8287;51.644;8.494;2023-02-01T05:45:08;100344.19;;;7.18;80.93
16355;BME280;8287;51.644;8.494;2023-02-01T05:47:35;100342.06;;;7.20;80.81
16355;BME280;8287;51.644;8.494;2023-02-01T05:50:05;100341.22;;;7.25;80.38
16355;BME280;8287;51.644;8.494;2023-02-01T05:52:31;100338.81;;;7.28;80.42
16355;BME280;8287;51.644;8.494;2023-02-01T05:54:58;100346.97;;;7.27;80.68
16355;BME280;8287;51.644;8.494;2023-02-01T05:57:25;100337.50;;;7.26;80.40
16355;BME280;8287;51.644;8.494;2023-02-01T05:59:51;100345.66;;;7.29;80.14
16355;BME280;8287;51.644;8.494;2023-02-01T06:02:18;100344.56;;;7.30;80.31
16355;BME280;8287;51.644;8.494;2023-02-01T06:04:45;100328.75;;;7.30;79.59
16355;BME280;8287;51.644;8.494;2023-02-01T06:07:13;100320.59;;;7.32;79.66
16355;BME280;8287;51.644;8.494;2023-02-01T06:09:40;100324.00;;;7.32;79.79
16355;BME280;8287;51.644;8.494;2023-02-01T06:12:07;100324.50;;;7.34;79.46
16355;BME280;8287;51.644;8.494;2023-02-01T06:14:33;100312.91;;;7.35;79.27
16355;BME280;8287;51.644;8.494;2023-02-01T06:17:00;100321.78;;;7.39;79.12
16355;BME280;8287;51.644;8.494;2023-02-01T06:19:27;100321.78;;;7.39;79.62
16355;BME280;8287;51.644;8.494;2023-02-01T06:21:53;100331.78;;;7.42;78.97
16355;BME280;8287;51.644;8.494;2023-02-01T06:24:21;100340.53;;;7.38;79.46
16355;BME280;8287;51.644;8.494;2023-02-01T06:26:48;100336.03;;;7.38;78.83
16355;BME280;8287;51.644;8.494;2023-02-01T06:29:14;100331.22;;;7.45;79.31
16355;BME280;8287;51.644;8.494;2023-02-01T06:31:44;100319.97;;;7.40;78.86
16355;BME280;8287;51.644;8.494;2023-02-01T06:34:11;100338.69;;;7.38;78.81
16355;BME280;8287;51.644;8.494;2023-02-01T06:36:37;100331.28;;;7.40;78.79
16355;BME280;8287;51.644;8.494;2023-02-01T06:39:05;100344.44;;;7.40;78.72
16355;BME280;8287;51.644;8.494;2023-02-01T06:41:33;100329.44;;;7.41;78.79
16355;BME280;8287;51.644;8.494;2023-02-01T06:44:00;100337.25;;;7.46;78.95
16355;BME280;8287;51.644;8.494;2023-02-01T06:46:27;100333.28;;;7.48;79.08
16355;BME280;8287;51.644;8.494;2023-02-01T06:48:53;100341.19;;;7.48;78.63
16355;BME280;8287;51.644;8.494;2023-02-01T06:51:22;100340.69;;;7.46;78.15
16355;BME280;8287;51.644;8.494;2023-02-01T06:53:49;100335.69;;;7.45;78.08
16355;BME280;8287;51.644;8.494;2023-02-01T06:56:16;100340.75;;;7.41;78.78
16355;BME280;8287;51.644;8.494;2023-02-01T06:58:44;100346.31;;;7.40;78.72
16355;BME280;8287;51.644;8.494;2023-02-01T07:01:11;100359.19;;;7.41;78.76
16355;BME280;8287;51.644;8.494;2023-02-01T07:03:38;100368.97;;;7.41;78.40
16355;BME280;8287;51.644;8.494;2023-02-01T07:06:07;100364.31;;;7.33;78.78
16355;BME280;8287;51.644;8.494;2023-02-01T07:08:36;100366.59;;;7.39;79.11
16355;BME280;8287;51.644;8.494;2023-02-01T07:11:04;100371.81;;;7.44;79.15
16355;BME280;8287;51.644;8.494;2023-02-01T07:13:31;100378.66;;;7.45;78.45
16355;BME280;8287;51.644;8.494;2023-02-01T07:16:00;100373.41;;;7.45;78.54
16355;BME280;8287;51.644;8.494;2023-02-01T07:18:27;100378.09;;;7.48;78.51
16355;BME280;8287;51.644;8.494;2023-02-01T07:20:54;100381.78;;;7.47;78.70
16355;BME280;8287;51.644;8.494;2023-02-01T07:23:22;100381.25;;;7.50;78.38
16355;BME280;8287;51.644;8.494;2023-02-01T07:25:49;100391.34;;;7.43;78.62
16355;BME280;8287;51.644;8.494;2023-02-01T07:28:19;100380.00;;;7.43;78.91
16355;BME280;8287;51.644;8.494;2023-02-01T07:30:45;100386.84;;;7.44;79.21
16355;BME280;8287;51.644;8.494;2023-02-01T07:33:18;100384.44;;;7.47;78.67
16355;BME280;8287;51.644;8.494;2023-02-01T07:35:45;100406.88;;;7.45;79.13
16355;BME280;8287;51.644;8.494;2023-02-01T07:38:11;100395.78;;;7.48;79.21
16355;BME280;8287;51.644;8.494;2023-02-01T07:40:38;100395.06;;;7.42;79.41
16355;BME280;8287;51.644;8.494;2023-02-01T07:43:05;100406.13;;;7.39;79.54
16355;BME280;8287;51.644;8.494;2023-02-01T07:45:33;100411.38;;;7.44;79.15
16355;BME280;8287;51.644;8.494;2023-02-01T07:47:59;100410.06;;;7.42;79.40
16355;BME280;8287;51.644;8.494;2023-02-01T07:50:27;100413.44;;;7.47;79.44
16355;BME280;8287;51.644;8.494;2023-02-01T07:52:54;100408.16;;;7.47;79.21
16355;BME280;8287;51.644;8.494;2023-02-01T07:55:21;100415.78;;;7.49;79.27
16355;BME280;8287;51.644;8.494;2023-02-01T07:57:47;100422.63;;;7.50;79.61
16355;BME280;8287;51.644;8.494;2023-02-01T08:00:15;100418.09;;;7.55;79.39
16355;BME280;8287;51.644;8.494;2023-02-01T08:02:59;100427.06;;;7.54;79.41
16355;BME280;8287;51.644;8.494;2023-02-01T08:05:27;100434.25;;;7.49;79.89
16355;BME280;8287;51.644;8.494;2023-02-01T08:07:54;100439.34;;;7.40;80.10
16355;BME280;8287;51.644;8.494;2023-02-01T08:10:21;100421.41;;;7.42;80.56
16355;BME280;8287;51.644;8.494;2023-02-01T08:12:47;100422.97;;;7.43;80.70
16355;BME280;8287;51.644;8.494;2023-02-01T08:15:14;100432.38;;;7.49;80.32
16355;BME280;8287;51.644;8.494;2023-02-01T08:17:46;100421.84;;;7.49;79.86
16355;BME280;8287;51.644;8.494;2023-02-01T08:20:13;100421.09;;;7.44;79.99
16355;BME280;8287;51.644;8.494;2023-02-01T08:22:40;100447.19;;;7.45;80.09
16355;BME280;8287;51.644;8.494;2023-02-01T08:25:08;100428.25;;;7.43;80.12
16355;BME280;8287;51.644;8.494;2023-02-01T08:27:35;100457.91;;;7.54;79.52
16355;BME280;8287;51.644;8.494;2023-02-01T08:30:02;100434.97;;;7.54;79.55
16355;BME280;8287;51.644;8.494;2023-02-01T08:32:30;100447.88;;;7.56;79.65
16355;BME280;8287;51.644;8.494;2023-02-01T08:34:57;100438.69;;;7.53;79.64
16355;BME280;8287;51.644;8.494;2023-02-01T08:37:23;100443.34;;;7.61;79.37
16355;BME280;8287;51.644;8.494;2023-02-01T08:39:51;100442.00;;;7.64;79.54
16355;BME280;8287;51.644;8.494;2023-02-01T08:42:18;100441.06;;;7.73;78.98
16355;BME280;8287;51.644;8.494;2023-02-01T08:45:02;100436.88;;;7.72;79.24
16355;BME280;8287;51.644;8.494;2023-02-01T08:47:29;100435.25;;;7.76;79.20
16355;BME280;8287;51.644;8.494;2023-02-01T08:49:56;100451.56;;;7.78;78.26
16355;BME280;8287;51.644;8.494;2023-02-01T08:52:23;100454.22;;;7.78;78.62
16355;BME280;8287;51.644;8.494;2023-02-01T08:54:49;100453.72;;;7.76;78.24
16355;BME280;8287;51.644;8.494;2023-02-01T08:57:17;100449.66;;;7.84;78.80
16355;BME280;8287;51.644;8.494;2023-02-01T08:59:44;100457.56;;;7.84;78.04
16355;BME280;8287;51.644;8.494;2023-02-01T09:02:12;100454.94;;;7.84;77.96
16355;BME280;8287;51.644;8.494;2023-02-01T09:04:39;100456.28;;;7.81;78.10
16355;BME280;8287;51.644;8.494;2023-02-01T09:07:06;100448.44;;;7.76;78.31
16355;BME280;8287;51.644;8.494;2023-02-01T09:09:33;100438.97;;;7.75;78.23
16355;BME280;8287;51.644;8.494;2023-02-01T09:12:00;100452.63;;;7.77;78.21
16355;BME280;8287;51.644;8.494;2023-02-01T09:14:28;100443.38;;;7.80;77.64
16355;BME280;8287;51.644;8.494;2023-02-01T09:16:55;100460.47;;;7.82;78.26
16355;BME280;8287;51.644;8.494;2023-02-01T09:19:21;100458.38;;;7.84;78.14
16355;BME280;8287;51.644;8.494;2023-02-01T09:21:48;100454.78;;;7.75;77.87
16355;BME280;8287;51.644;8.494;2023-02-01T09:24:15;100457.41;;;7.75;77.74
16355;BME280;8287;51.644;8.494;2023-02-01T09:26:42;100458.91;;;7.81;77.76
16355;BME280;8287;51.644;8.494;2023-02-01T09:29:09;100435.47;;;7.80;77.70
16355;BME280;8287;51.644;8.494;2023-02-01T09:31:40;100446.56;;;7.77;77.67
16355;BME280;8287;51.644;8.494;2023-02-01T09:34:06;100451.56;;;7.78;77.60
16355;BME280;8287;51.644;8.494;2023-02-01T09:36:33;100449.44;;;7.80;77.34
16355;BME280;8287;51.644;8.494;2023-02-01T09:39:01;100436.47;;;7.84;77.53
16355;BME280;8287;51.644;8.494;2023-02-01T09:41:38;100436.72;;;7.82;77.47
16355;BME280;8287;51.644;8.494;2023-02-01T09:44:16;100433.56;;;7.85;77.18
16355;BME280;8287;51.644;8.494;2023-02-01T09:46:47;100439.31;;;7.87;77.54
16355;BME280;8287;51.644;8.494;2023-02-01T09:49:17;100437.75;;;7.86;77.11
16355;BME280;8287;51.644;8.494;2023-02-01T09:51:48;100429.00;;;7.91;77.71
16355;BME280;8287;51.644;8.494;2023-02-01T09:54:17;100433.19;;;7.92;77.30
16355;BME280;8287;51.644;8.494;2023-02-01T09:56:47;100423.13;;;7.94;76.81
16355;BME280;8287;51.644;8.494;2023-02-01T09:59:25;100417.38;;;7.92;77.10
16355;BME280;8287;51.644;8.494;2023-02-01T10:01:57;100425.50;;;7.95;76.96
16355;BME280;8287;51.644;8.494;2023-02-01T10:04:25;100428.13;;;7.95;77.36
16355;BME280;8287;51.644;8.494;2023-02-01T10:07:05;100426.25;;;7.96;77.57
16355;BME280;8287;51.644;8.494;2023-02-01T10:09:44;100428.91;;;7.96;76.80
16355;BME280;8287;51.644;8.494;2023-02-01T10:15:33;100417.06;;;8.12;76.88
16355;BME280;8287;51.644;8.494;2023-02-01T10:18:18;100423.16;;;8.12;76.59
16355;BME280;8287;51.644;8.494;2023-02-01T10:20:56;100426.56;;;8.13;76.54
16355;BME280;8287;51.644;8.494;2023-02-01T10:23:46;100421.00;;;8.14;76.81
16355;BME280;8287;51.644;8.494;2023-02-01T10:26:18;100413.31;;;8.18;76.51
16355;BME280;8287;51.644;8.494;2023-02-01T10:28:50;100422.47;;;8.25;76.62
16355;BME280;8287;51.644;8.494;2023-02-01T10:31:17;100416.13;;;8.26;76.40
16355;BME280;8287;51.644;8.494;2023-02-01T10:33:47;100409.63;;;8.19;76.08
16355;BME280;8287;51.644;8.494;2023-02-01T10:36:16;100415.47;;;8.16;76.67
16355;BME280;8287;51.644;8.494;2023-02-01T10:38:46;100413.06;;;8.19;76.45
16355;BME280;8287;51.644;8.494;2023-02-01T10:41:15;100410.63;;;8.23;76.52
16355;BME280;8287;51.644;8.494;2023-02-01T10:43:45;100408.44;;;8.30;76.57
16355;BME280;8287;51.644;8.494;2023-02-01T10:46:12;100403.91;;;8.30;76.56
16355;BME280;8287;51.644;8.494;2023-02-01T10:48:39;100413.03;;;8.38;76.24
16355;BME280;8287;51.644;8.494;2023-02-01T10:51:14;100415.19;;;8.36;75.63
16355;BME280;8287;51.644;8.494;2023-02-01T10:53:48;100394.97;;;8.45;75.69
16355;BME280;8287;51.644;8.494;2023-02-01T10:56:22;100409.25;;;8.44;75.06
16355;BME280;8287;51.644;8.494;2023-02-01T10:58:49;100382.78;;;8.49;75.44
16355;BME280;8287;51.644;8.494;2023-02-01T11:01:19;100396.47;;;8.51;75.13
16355;BME280;8287;51.644;8.494;2023-02-01T11:03:52;100402.63;;;8.46;75.03
16355;BME280;8287;51.644;8.494;2023-02-01T11:06:26;100393.91;;;8.46;74.92
16355;BME280;8287;51.644;8.494;2023-02-01T11:08:55;100407.97;;;8.41;75.01
16355;BME280;8287;51.644;8.494;2023-02-01T11:11:23;100404.84;;;8.39;74.45
16355;BME280;8287;51.644;8.494;2023-02-01T11:13:58;100400.13;;;8.36;74.57
16355;BME280;8287;51.644;8.494;2023-02-01T11:16:33;100392.28;;;8.31;74.73
16355;BME280;8287;51.644;8.494;2023-02-01T11:19:00;100386.44;;;8.34;75.14
16355;BME280;8287;51.644;8.494;2023-02-01T11:21:28;100387.72;;;8.37;74.45
16355;BME280;8287;51.644;8.494;2023-02-01T11:23:55;100377.94;;;8.37;74.77
16355;BME280;8287;51.644;8.494;2023-02-01T11:26:27;100379.22;;;8.40;74.08
16355;BME280;8287;51.644;8.494;2023-02-01T11:28:57;100372.56;;;8.42;74.84
16355;BME280;8287;51.644;8.494;2023-02-01T11:31:26;100368.38;;;8.41;74.64
16355;BME280;8287;51.644;8.494;2023-02-01T11:33:57;100369.22;;;8.37;74.31
16355;BME280;8287;51.644;8.494;2023-02-01T11:36:28;100357.53;;;8.43;74.26
16355;BME280;8287;51.644;8.494;2023-02-01T11:39:10;100349.59;;;8.43;74.72
16355;BME280;8287;51.644;8.494;2023-02-01T11:41:43;100346.38;;;8.46;74.74
16355;BME280;8287;51.644;8.494;2023-02-01T11:44:21;100339.13;;;8.38;74.80
16355;BME280;8287;51.644;8.494;2023-02-01T11:46:48;100352.63;;;8.36;74.54
16355;BME280;8287;51.644;8.494;2023-02-01T11:49:21;100327.31;;;8.35;75.21
16355;BME280;8287;51.644;8.494;2023-02-01T11:51:58;100328.75;;;8.41;74.66
16355;BME280;8287;51.644;8.494;2023-02-01T11:54:50;100328.28;;;8.39;75.24
16355;BME280;8287;51.644;8.494;2023-02-01T11:57:34;100320.34;;;8.39;75.61
16355;BME280;8287;51.644;8.494;2023-02-01T12:00:19;100326.72;;;8.38;75.16
16355;BME280;8287;51.644;8.494;2023-02-01T12:02:59;100325.22;;;8.32;75.26
16355;BME280;8287;51.644;8.494;2023-02-01T12:05:35;100325.81;;;8.29;75.41
16355;BME280;8287;51.644;8.494;2023-02-01T12:08:18;100308.78;;;8.22;75.99
16355;BME280;8287;51.644;8.494;2023-02-01T12:10:58;100314.63;;;8.19;76.28
16355;BME280;8287;51.644;8.494;2023-02-01T12:13:40;100313.81;;;8.18;75.98
16355;BME280;8287;51.644;8.494;2023-02-01T12:16:21;100305.38;;;8.16;77.35
16355;BME280;8287;51.644;8.494;2023-02-01T12:21:59;100296.69;;;8.16;78.00
16355;BME280;8287;51.644;8.494;2023-02-01T12:24:43;100279.09;;;8.11;77.97
16355;BME280;8287;51.644;8.494;2023-02-01T12:27:35;100285.50;;;8.05;78.69
16355;BME280;8287;51.644;8.494;2023-02-01T12:30:43;100274.75;;;8.02;78.92
16355;BME280;8287;51.644;8.494;2023-02-01T12:33:18;100272.91;;;8.02;79.30
16355;BME280;8287;51.644;8.494;2023-02-01T12:35:57;100269.41;;;8.07;79.98
16355;BME280;8287;51.644;8.494;2023-02-01T12:38:41;100255.84;;;8.13;79.75
16355;BME280;8287;51.644;8.494;2023-02-01T12:41:23;100250.34;;;8.10;80.45
16355;BME280;8287;51.644;8.494;2023-02-01T12:43:56;100244.09;;;8.06;80.93
16355;BME280;8287;51.644;8.494;2023-02-01T12:46:29;100239.91;;;8.05;81.88
16355;BME280;8287;51.644;8.494;2023-02-01T12:49:01;100223.25;;;8.04;81.02
16355;BME280;8287;51.644;8.494;2023-02-01T12:51:32;100240.72;;;8.00;81.44
16355;BME280;8287;51.644;8.494;2023-02-01T12:54:03;100234.56;;;7.91;81.49
16355;BME280;8287;51.644;8.494;2023-02-01T12:56:37;100236.16;;;7.92;82.84
16355;BME280;8287;51.644;8.494;2023-02-01T12:59:13;100237.19;;;7.91;82.44
16355;BME280;8287;51.644;8.494;2023-02-01T13:01:46;100261.56;;;7.83;83.61
16355;BME280;8287;51.644;8.494;2023-02-01T13:04:20;100231.38;;;7.76;84.66
16355;BME280;8287;51.644;8.494;2023-02-01T13:06:54;100243.16;;;7.65;85.73
16355;BME280;8287;51.644;8.494;2023-02-01T13:09:26;100230.63;;;7.57;86.57
16355;BME280;8287;51.644;8.494;2023-02-01T13:11:59;100222.28;;;7.50;87.45
16355;BME280;8287;51.644;8.494;2023-02-01T13:14:33;100221.50;;;7.49;87.26
16355;BME280;8287;51.644;8.494;2023-02-01T13:17:04;100216.22;;;7.49;87.33
16355;BME280;8287;51.644;8.494;2023-02-01T13:19:40;100215.44;;;7.49;88.04
16355;BME280;8287;51.644;8.494;2023-02-01T13:22:11;100229.19;;;7.46;87.83
16355;BME280;8287;51.644;8.494;2023-02-01T13:24:42;100229.97;;;7.46;88.22
16355;BME280;8287;51.644;8.494;2023-02-01T13:27:13;100209.38;;;7.48;88.98
16355;BME280;8287;51.644;8.494;2023-02-01T13:29:48;100214.44;;;7.45;89.43
16355;BME280;8287;51.644;8.494;2023-02-01T13:32:34;100217.06;;;7.45;89.63
16355;BME280;8287;51.644;8.494;2023-02-01T13:38:25;100202.06;;;7.45;89.84
16355;BME280;8287;51.644;8.494;2023-02-01T13:41:10;100223.19;;;7.40;90.20
16355;BME280;8287;51.644;8.494;2023-02-01T13:43:43;100221.09;;;7.42;90.17
16355;BME280;8287;51.644;8.494;2023-02-01T13:46:11;100221.00;;;7.47;90.59